Home   Weather   Russia   Yakutsk   Past weeks
Flag for Russia

Past Weather in Yakutsk, Russia — Yesterday and Last 2 Weeks

Currently: 70 °F. Sunny. (Weather station: Jakutsk, Russia). See more current weather

Past Weather in Yakutsk — Graph

°F

Yakutsk Temperature Yesterday

Maximum temperature yesterday: 70 °F (at 2:00 pm)
Minimum temperature yesterday: 37 °F (at 2:30 am)
Average temperature yesterday: 57 °F

High & Low Weather Summary for the Past Weeks

 TemperatureHumidityPressure
High70 °F (May 26, 2:00 pm)100% (May 15, 8:00 am)30.07 "Hg (May 15, 8:00 am)
Low25 °F (May 20, 3:00 am)18% (May 22, 2:00 pm)29.09 "Hg (May 16, 10:30 pm)
Average48 °F48%29.74 "Hg
* Reported May 12 9:00 am — May 27 9:00 am, Yakutsk. Weather by CustomWeather, © 2024

Note: Actual official high and low records may vary slightly from our data, if they occured in-between our weather recording intervals... More about our weather records

Yakutsk Weather History for the Previous 24 Hours

Scroll right to see more
 ConditionsComfort  
Time TempWeatherWind HumidityBarometerVisibility
9:00 am
Mon, May 27
70 °FSunny.17 mph21%29.95 "Hg10 mi
8:30 am68 °FSunny.17 mph23%29.95 "Hg10 mi
8:00 am66 °FSunny.13 mph26%29.95 "Hg10 mi
7:30 am64 °FSunny.8 mph30%29.95 "Hg10 mi
7:00 am63 °FSunny.8 mph30%29.95 "Hg10 mi
6:30 am59 °FSunny.3 mph34%29.98 "Hg10 mi
6:00 am55 °FSunny.6 mph36%29.98 "Hg10 mi
5:30 am52 °FSunny.3 mph44%29.95 "Hg10 mi
5:00 am50 °FSunny.3 mph43%29.95 "Hg10 mi
4:30 am48 °FSunny.3 mph46%29.95 "Hg10 mi
3:30 am48 °FSunny.10 mph43%29.95 "Hg10 mi
3:00 am48 °FSunny.10 mph43%29.95 "Hg10 mi
2:00 am46 °FSunny.8 mph50%29.95 "Hg10 mi
1:30 am46 °FClear.6 mph50%29.95 "Hg10 mi
1:00 am48 °FPassing clouds.6 mph46%29.95 "HgN/A
12:30 am48 °FClear.8 mph50%29.95 "Hg10 mi
12:00 am50 °FClear.6 mph47%29.95 "Hg10 mi
11:00 pm
Sun, May 26
54 °FClear.6 mph41%29.95 "Hg10 mi
10:00 pm57 °FClear.3 mph41%29.95 "Hg3 mi
9:00 pm64 °FClear.No wind24%29.95 "Hg10 mi
8:00 pm66 °FSunny.1 mph22%29.95 "Hg10 mi
7:30 pm66 °FSunny.1 mph22%29.95 "Hg10 mi
7:00 pm68 °FSunny.1 mph21%29.95 "Hg10 mi
6:30 pm68 °FSunny.3 mph21%29.95 "Hg10 mi
6:00 pm68 °FSunny.3 mph21%29.95 "Hg10 mi
5:00 pm68 °FSunny.1 mph21%29.95 "Hg10 mi
4:30 pm68 °FSunny.1 mph23%29.95 "Hg10 mi
4:00 pm70 °FSunny.1 mph20%29.95 "Hg10 mi
3:30 pm68 °FSunny.3 mph21%29.95 "Hg10 mi
3:00 pm68 °FPassing clouds.3 mph21%29.98 "HgN/A
2:30 pm68 °FPassing clouds.3 mph23%29.98 "HgN/A
2:00 pm70 °FSunny.1 mph21%29.98 "Hg10 mi
1:30 pm68 °FPassing clouds.3 mph23%29.98 "HgN/A
1:00 pm66 °FSunny.1 mph24%30.01 "Hg10 mi
12:30 pm66 °FPassing clouds.3 mph26%30.01 "HgN/A
12:00 pm66 °FPassing clouds.3 mph26%30.01 "HgN/A
11:30 am66 °FPassing clouds.3 mph26%30.01 "HgN/A
10:30 am66 °FSunny.1 mph28%30.04 "Hg10 mi
10:00 am64 °FPassing clouds.3 mph32%30.04 "HgN/A
Weather by CustomWeather, © 2024

See weather overview